Time;durP1;ratioP1;P1;durP2;ratioP2;P2;SDS_P1;SDS_P2;PMS_P1;PMS_P2;Temp;Humidity;BMP_temperature;BMP_pressure;BME280_temperature;BME280_humidity;BME280_pressure;Samples;Min_cycle;Max_cycle;Signal;HPM_P1;HPM_P2
2024/02/24 00:00:05;;;;;;;8.07;1.20;;;;;;;-145.69;51.04;52283.97;5115459;27;20204;-81
2024/02/24 00:02:31;;;;;;;2.90;1.00;;;;;;;-145.69;51.17;52309.72;5115182;28;20189;-81
2024/02/24 00:04:58;;;;;;;3.07;1.20;;;;;;;-145.69;51.10;52299.81;5115197;27;20202;-81
2024/02/24 00:07:24;;;;;;;2.47;1.10;;;;;;;-145.69;51.28;52309.72;5114573;28;20203;-81
2024/02/24 00:09:51;;;;;;;2.23;0.90;;;;;;;-145.69;51.98;52305.75;5114952;27;20204;-81
2024/02/24 00:12:19;;;;;;;4.47;1.33;;;;;;;-145.69;51.95;52321.59;5114364;28;20205;-82
2024/02/24 00:14:45;;;;;;;3.20;1.30;;;;;;;-145.69;51.78;52299.81;5114754;28;20594;-82
2024/02/24 00:17:12;;;;;;;6.07;1.23;;;;;;;-145.69;51.66;52297.84;5114571;28;20572;-81
2024/02/24 00:19:38;;;;;;;3.13;1.10;;;;;;;-145.69;52.91;52351.31;5114545;28;20488;-81
2024/02/24 00:22:05;;;;;;;1.20;1.10;;;;;;;-145.69;53.10;52333.47;5114326;28;20201;-81
2024/02/24 00:24:31;;;;;;;1.87;0.73;;;;;;;-145.69;53.80;52305.75;5114654;28;20207;-81
2024/02/24 00:26:58;;;;;;;3.50;1.00;;;;;;;-145.69;54.41;52307.75;5114482;28;20198;-81
2024/02/24 00:29:25;;;;;;;6.13;0.93;;;;;;;-145.69;54.14;52293.88;5114660;27;20671;-81
2024/02/24 00:31:52;;;;;;;4.67;1.70;;;;;;;-145.69;54.86;52293.88;5113886;27;20385;-81
2024/02/24 00:34:18;;;;;;;2.40;0.90;;;;;;;-145.69;53.98;52305.75;5114441;28;20221;-81
2024/02/24 00:36:45;;;;;;;2.70;1.10;;;;;;;-145.69;54.09;52285.97;5114028;28;20208;-81
2024/02/24 00:39:11;;;;;;;2.97;1.20;;;;;;;-145.69;54.14;52323.59;5113736;28;20203;-82
2024/02/24 00:41:38;;;;;;;3.60;1.00;;;;;;;-145.69;54.34;52297.84;5113640;28;20208;-81
2024/02/24 00:44:05;;;;;;;3.17;1.07;;;;;;;-145.69;55.01;52303.78;5114245;28;20201;-81
2024/02/24 00:46:33;;;;;;;3.37;1.00;;;;;;;-145.69;55.00;52321.59;5114192;28;20224;-81
2024/02/24 00:48:59;;;;;;;2.17;1.10;;;;;;;-145.69;54.98;52287.94;5113988;28;20204;-82
2024/02/24 00:51:26;;;;;;;1.87;1.10;;;;;;;-145.69;55.39;52268.13;5113852;28;20229;-81
2024/02/24 00:53:52;;;;;;;1.63;1.10;;;;;;;-145.69;55.26;52317.66;5113830;28;20233;-83
2024/02/24 00:56:19;;;;;;;1.33;1.00;;;;;;;-145.69;54.94;52345.38;5114126;28;20641;-81
2024/02/24 00:58:45;;;;;;;3.90;1.10;;;;;;;-145.69;53.87;52295.84;5112732;28;20545;-81
2024/02/24 01:01:12;;;;;;;4.07;1.10;;;;;;;-145.69;53.59;52311.69;5114076;27;20201;-81
2024/02/24 01:03:40;;;;;;;1.50;0.87;;;;;;;-145.69;52.82;52270.13;5114062;28;20204;-83
2024/02/24 01:06:06;;;;;;;1.10;0.80;;;;;;;-145.69;52.25;52323.59;5113358;28;20193;-82
2024/02/24 01:08:33;;;;;;;2.43;0.97;;;;;;;-145.69;52.07;52291.91;5112177;28;20234;-80
2024/02/24 01:10:59;;;;;;;3.27;1.20;;;;;;;-145.69;52.11;52303.78;5112709;28;20564;-82
2024/02/24 01:13:26;;;;;;;1.37;1.00;;;;;;;-145.69;51.86;52293.88;5112704;28;20214;-82
2024/02/24 01:15:52;;;;;;;1.40;0.77;;;;;;;-145.69;52.14;52258.22;5113284;28;20197;-83
2024/02/24 01:18:20;;;;;;;1.43;1.00;;;;;;;-145.69;52.11;52301.81;5113256;28;20204;-82
2024/02/24 01:20:49;;;;;;;1.70;1.00;;;;;;;-145.69;51.88;52285.97;5113264;28;20197;-81
2024/02/24 01:23:15;;;;;;;4.93;1.10;;;;;;;-145.69;52.05;52309.72;5113302;28;20202;-81
2024/02/24 01:25:41;;;;;;;2.57;1.13;;;;;;;-145.69;52.30;52282.00;5113175;28;20646;-81
2024/02/24 01:28:08;;;;;;;4.43;1.07;;;;;;;-145.69;52.64;52317.66;5113483;28;20201;-82
2024/02/24 01:30:36;;;;;;;2.53;0.80;;;;;;;-145.69;53.60;52289.91;5113218;28;20205;-81
2024/02/24 01:33:03;;;;;;;1.37;0.90;;;;;;;-145.69;53.61;52276.06;5113433;28;20229;-82
2024/02/24 01:35:29;;;;;;;5.73;1.17;;;;;;;-145.69;53.62;52325.56;5113205;28;20270;-81
2024/02/24 01:37:57;;;;;;;2.33;0.90;;;;;;;-145.69;53.88;52297.84;5112638;28;20198;-81
2024/02/24 01:40:24;;;;;;;5.07;1.17;;;;;;;-145.69;54.16;52303.78;5112590;28;20652;-81
2024/02/24 01:42:50;;;;;;;5.67;0.97;;;;;;;-145.69;54.02;52319.63;5112625;28;20212;-81
2024/02/24 01:45:17;;;;;;;5.67;1.00;;;;;;;-145.69;53.90;52305.75;5113173;28;20205;-81
2024/02/24 01:47:44;;;;;;;1.63;0.87;;;;;;;-145.69;53.65;52285.97;5113294;28;20197;-82
2024/02/24 01:50:11;;;;;;;1.67;1.17;;;;;;;-145.69;53.70;52293.88;5112830;28;20251;-81
2024/02/24 01:52:37;;;;;;;5.30;1.20;;;;;;;-145.69;53.38;52309.72;5113055;28;20225;-81
2024/02/24 01:55:07;;;;;;;6.10;1.10;;;;;;;-145.69;53.16;52282.00;5112847;28;20782;-81
2024/02/24 01:57:38;;;;;;;1.97;0.90;;;;;;;-145.69;52.72;52337.44;5113283;28;20266;-81
2024/02/24 02:00:05;;;;;;;1.77;1.13;;;;;;;-145.69;52.80;52280.00;5112980;28;20205;-81
2024/02/24 02:02:33;;;;;;;2.77;1.20;;;;;;;-145.69;52.67;52297.84;5112345;28;20198;-82
2024/02/24 02:04:59;;;;;;;3.93;1.20;;;;;;;-145.69;52.53;52313.69;5112707;28;20201;-82
2024/02/24 02:07:26;;;;;;;1.77;1.07;;;;;;;-145.69;52.46;52325.56;5112745;28;20205;-82
2024/02/24 02:09:56;;;;;;;1.93;1.20;;;;;;;-145.69;52.92;52282.00;5113226;28;20208;-82
2024/02/24 02:12:24;;;;;;;3.03;1.13;;;;;;;-145.69;52.16;52283.97;5112576;28;20242;-81
2024/02/24 02:14:50;;;;;;;1.93;1.20;;;;;;;-145.69;52.63;52301.81;5112403;28;20275;-82
2024/02/24 02:17:17;;;;;;;3.53;1.40;;;;;;;-145.69;53.27;52305.75;5112858;28;20212;-82
2024/02/24 02:19:44;;;;;;;3.57;1.20;;;;;;;-145.69;53.80;52280.00;5112914;28;20598;-81
2024/02/24 02:22:14;;;;;;;2.80;1.37;;;;;;;-145.69;54.04;52289.91;5112400;28;20198;-81
2024/02/24 02:24:42;;;;;;;4.10;1.17;;;;;;;-145.69;54.27;52293.88;5112581;28;20366;-82
2024/02/24 02:27:08;;;;;;;2.43;1.57;;;;;;;-145.69;54.48;52305.75;5112776;28;20193;-81
2024/02/24 02:29:35;;;;;;;1.80;1.10;;;;;;;-145.69;54.42;52327.53;5112837;28;20213;-81
2024/02/24 02:32:01;;;;;;;2.67;1.10;;;;;;;-145.69;54.88;52323.59;5112481;28;20201;-81
2024/02/24 02:34:28;;;;;;;2.97;1.43;;;;;;;-145.69;54.81;52297.84;5112582;27;20704;-82
2024/02/24 02:36:55;;;;;;;3.10;1.13;;;;;;;-145.69;54.84;52343.38;5112744;28;20198;-81
2024/02/24 02:39:21;;;;;;;1.33;1.00;;;;;;;-145.69;55.06;52307.75;5111904;28;20666;-81
2024/02/24 02:41:49;;;;;;;1.57;0.97;;;;;;;-145.69;55.45;52323.59;5112320;28;20194;-81
2024/02/24 02:44:15;;;;;;;1.10;1.00;;;;;;;-145.69;56.36;52333.47;5112619;28;20292;-81
2024/02/24 02:46:46;;;;;;;2.73;1.20;;;;;;;-145.69;56.60;52305.75;5112439;28;20292;-82
2024/02/24 02:49:12;;;;;;;1.87;1.00;;;;;;;-145.69;57.15;52333.47;5112771;28;20201;-81
2024/02/24 02:51:39;;;;;;;3.23;1.23;;;;;;;-145.69;58.33;52337.44;5114955;28;20286;-81
2024/02/24 02:54:05;;;;;;;3.70;1.10;;;;;;;-145.69;57.78;52337.44;5116034;28;20576;-81
2024/02/24 02:56:32;;;;;;;0.93;0.90;;;;;;;-145.69;58.20;52327.53;5115875;28;20202;-81
2024/02/24 02:59:00;;;;;;;2.37;1.10;;;;;;;-145.69;58.56;52347.34;5115854;28;20217;-81
2024/02/24 03:01:26;;;;;;;2.50;1.20;;;;;;;-145.69;58.58;52333.47;5116397;28;20568;-81
2024/02/24 03:03:53;;;;;;;3.80;1.40;;;;;;;-145.69;58.68;52365.16;5116086;28;20209;-82
2024/02/24 03:06:19;;;;;;;2.90;1.17;;;;;;;-145.69;59.83;52337.44;5116201;28;20211;-81
2024/02/24 03:08:46;;;;;;;2.07;1.33;;;;;;;-145.69;59.78;52359.22;5115963;28;20718;-81
2024/02/24 03:11:14;;;;;;;1.57;1.27;;;;;;;-145.69;60.49;52337.44;5115655;28;20194;-81
2024/02/24 03:13:41;;;;;;;3.13;1.30;;;;;;;-145.69;61.10;52339.44;5115955;28;20754;-81
2024/02/24 03:16:09;;;;;;;1.40;0.97;;;;;;;-145.69;60.64;52313.69;5115737;28;20201;-81
2024/02/24 03:18:35;;;;;;;4.30;1.50;;;;;;;-145.69;61.33;52357.25;5115858;28;20201;-81
2024/02/24 03:21:02;;;;;;;2.97;1.07;;;;;;;-145.69;61.26;52349.31;5115791;28;20193;-81
2024/02/24 03:23:29;;;;;;;1.63;1.33;;;;;;;-145.69;61.70;52353.28;5115555;28;20189;-82
2024/02/24 03:25:55;;;;;;;2.77;1.23;;;;;;;-145.69;61.53;52357.25;5115814;28;20235;-81
2024/02/24 03:28:22;;;;;;;3.23;1.23;;;;;;;-145.69;61.44;52353.28;5116037;28;20539;-81
2024/02/24 03:30:48;;;;;;;2.13;1.00;;;;;;;-145.69;61.95;52377.06;5115654;27;20202;-81
2024/02/24 03:33:17;;;;;;;2.30;1.10;;;;;;;-145.69;62.40;52369.13;5113066;28;20206;-81
2024/02/24 03:35:43;;;;;;;2.17;0.97;;;;;;;-145.69;62.44;52377.06;5115434;28;20589;-81
2024/02/24 03:38:10;;;;;;;1.63;1.20;;;;;;;-145.69;63.31;52357.25;5115462;28;20648;-80
2024/02/24 03:40:38;;;;;;;1.57;1.10;;;;;;;-145.69;63.54;52357.25;5115598;27;20205;-81
2024/02/24 03:43:11;;;;;;;1.77;1.10;;;;;;;-145.69;63.89;52321.59;5114802;28;20197;-82
2024/02/24 03:45:37;;;;;;;3.07;1.30;;;;;;;-145.69;63.33;52353.28;5115773;28;20216;-81
2024/02/24 03:48:04;;;;;;;3.77;1.27;;;;;;;-145.69;63.74;52321.59;5115558;28;20193;-81
2024/02/24 03:50:32;;;;;;;9.10;1.43;;;;;;;-145.69;63.32;52365.16;5114916;28;20260;-81
2024/02/24 03:53:00;;;;;;;2.00;1.30;;;;;;;-145.69;63.34;52377.06;5114699;27;20718;-81
2024/02/24 03:55:27;;;;;;;2.13;1.20;;;;;;;-145.69;63.66;52345.38;5114970;28;20228;-81
2024/02/24 03:57:53;;;;;;;6.83;1.40;;;;;;;-145.69;63.51;52335.47;5115053;28;20598;-81
2024/02/24 04:00:20;;;;;;;2.63;1.53;;;;;;;-145.69;63.69;52325.56;5115033;28;20295;-81
2024/02/24 04:02:47;;;;;;;3.17;1.70;;;;;;;-145.69;64.66;52361.22;5114030;28;20450;-81
2024/02/24 04:05:13;;;;;;;6.10;1.60;;;;;;;-145.69;64.49;52331.50;5115009;28;20208;-81
2024/02/24 04:07:41;;;;;;;4.43;1.47;;;;;;;-145.69;64.41;52369.13;5114533;28;20560;-81
2024/02/24 04:10:08;;;;;;;7.60;1.37;;;;;;;-145.69;64.06;52357.25;5114451;28;20205;-81
2024/02/24 04:12:35;;;;;;;1.97;1.30;;;;;;;-145.69;64.12;52337.44;5114712;28;20229;-81
2024/02/24 04:15:01;;;;;;;2.97;1.63;;;;;;;-145.69;63.86;52345.38;5114957;28;20231;-82
2024/02/24 04:17:28;;;;;;;2.37;1.83;;;;;;;-145.69;63.45;52333.47;5114547;28;20217;-82
2024/02/24 04:19:57;;;;;;;4.60;1.50;;;;;;;-145.69;63.44;52349.31;5114752;28;20224;-81
2024/02/24 04:22:24;;;;;;;4.53;1.80;;;;;;;-145.69;63.28;52383.00;5114723;28;20201;-81
2024/02/24 04:24:52;;;;;;;1.40;1.20;;;;;;;-145.69;63.29;52355.28;5114824;28;20212;-81
2024/02/24 04:27:19;;;;;;;4.40;1.17;;;;;;;-145.69;63.10;52349.31;5114987;28;20246;-81
2024/02/24 04:29:45;;;;;;;4.67;1.30;;;;;;;-145.69;63.22;52365.16;5114769;28;20198;-81
2024/02/24 04:32:12;;;;;;;2.63;1.60;;;;;;;-145.69;63.37;52339.44;5114575;28;20561;-81
2024/02/24 04:34:38;;;;;;;5.63;1.63;;;;;;;-145.69;63.09;52307.75;5114161;28;20233;-81
2024/02/24 04:37:05;;;;;;;1.13;1.03;;;;;;;-145.69;62.88;52345.38;5114736;28;20232;-81
2024/02/24 04:39:31;;;;;;;2.43;1.40;;;;;;;-145.69;62.80;52339.44;5114056;28;20679;-81
2024/02/24 04:41:59;;;;;;;3.70;1.30;;;;;;;-145.69;62.99;52367.16;5113626;28;20198;-81
2024/02/24 04:44:25;;;;;;;4.07;1.63;;;;;;;-145.69;62.79;52339.44;5114308;28;20213;-82
2024/02/24 04:46:52;;;;;;;3.00;1.70;;;;;;;-145.69;62.43;52384.97;5114181;28;20205;-81
2024/02/24 04:49:18;;;;;;;3.03;1.83;;;;;;;-145.69;62.31;52317.66;5113760;28;20209;-81
2024/02/24 04:51:45;;;;;;;5.57;1.90;;;;;;;-145.69;62.21;52333.47;5114305;28;20219;-81
2024/02/24 04:54:12;;;;;;;2.13;1.60;;;;;;;-145.69;61.94;52303.78;5114112;28;20228;-81
2024/02/24 04:56:38;;;;;;;2.67;1.57;;;;;;;-145.69;62.06;52355.28;5114191;28;20209;-81
2024/02/24 04:59:06;;;;;;;5.07;1.80;;;;;;;-145.69;62.37;52323.59;5113537;28;20204;-82
2024/02/24 05:01:33;;;;;;;3.97;1.73;;;;;;;-145.69;62.29;52357.25;5113740;28;20431;-81
2024/02/24 05:03:59;;;;;;;2.07;1.60;;;;;;;-145.69;62.34;52369.13;5114194;28;20216;-81
2024/02/24 05:06:25;;;;;;;1.77;1.50;;;;;;;-145.69;61.88;52359.22;5114017;28;20205;-81
2024/02/24 05:08:52;;;;;;;2.73;1.37;;;;;;;-145.69;61.85;52345.38;5113450;28;20197;-81
2024/02/24 05:11:19;;;;;;;1.30;1.20;;;;;;;-145.69;61.94;52329.53;5113447;28;20190;-81
2024/02/24 05:13:45;;;;;;;1.80;1.30;;;;;;;-145.69;61.18;52341.41;5112960;28;20602;-81
2024/02/24 05:16:13;;;;;;;3.37;1.70;;;;;;;-145.69;61.11;52313.69;5113326;28;20224;-81
2024/02/24 05:18:40;;;;;;;1.70;1.30;;;;;;;-145.69;60.28;52347.34;5113941;28;20288;-81
2024/02/24 05:21:07;;;;;;;2.37;1.63;;;;;;;-145.69;59.96;52297.84;5113512;28;20197;-81
2024/02/24 05:23:33;;;;;;;1.63;1.30;;;;;;;-145.69;59.54;52335.47;5113702;28;20200;-81
2024/02/24 05:26:00;;;;;;;1.70;1.20;;;;;;;-145.69;58.64;52325.56;5113643;28;20255;-81
2024/02/24 05:28:27;;;;;;;1.40;1.23;;;;;;;-145.69;59.51;52341.41;5113521;28;20293;-81
2024/02/24 05:30:54;;;;;;;1.90;1.20;;;;;;;-145.69;59.19;52319.63;5112870;28;20194;-81
2024/02/24 05:33:21;;;;;;;1.63;1.03;;;;;;;-145.69;58.91;52313.69;5113484;28;20728;-81
2024/02/24 05:35:48;;;;;;;0.90;0.87;;;;;;;-145.69;59.06;52305.75;5113064;28;20226;-81
2024/02/24 05:38:14;;;;;;;0.90;0.90;;;;;;;-145.69;59.16;52345.38;5110848;28;20648;-81
2024/02/24 05:40:41;;;;;;;1.63;0.80;;;;;;;-145.69;59.64;52329.53;5113361;28;20201;-81
2024/02/24 05:43:07;;;;;;;1.97;0.93;;;;;;;-145.69;59.55;52313.69;5113693;28;20208;-81
2024/02/24 05:45:34;;;;;;;1.47;1.00;;;;;;;-145.69;59.71;52349.31;5113439;28;20201;-81
2024/02/24 05:48:02;;;;;;;2.95;1.20;;;;;;;-145.69;60.29;52317.66;5112234;28;20442;-80
2024/02/24 05:50:30;;;;;;;1.27;1.10;;;;;;;-145.69;60.32;52305.75;5113042;28;20271;-81
2024/02/24 05:52:57;;;;;;;1.07;0.93;;;;;;;-145.69;60.74;52319.63;5113185;28;20652;-81
2024/02/24 05:55:23;;;;;;;1.47;0.70;;;;;;;-145.69;60.92;52315.66;5112849;28;20349;-81
2024/02/24 05:57:49;;;;;;;2.17;0.90;;;;;;;-145.69;60.92;52305.75;5112785;28;20205;-81
2024/02/24 06:00:18;;;;;;;0.90;0.90;;;;;;;-145.69;60.36;52335.47;5113304;28;20204;-81
2024/02/24 06:02:44;;;;;;;1.03;0.80;;;;;;;-145.69;60.72;52329.53;5112891;28;20285;-81
2024/02/24 06:05:11;;;;;;;1.80;1.00;;;;;;;-145.69;61.27;52309.72;5113055;28;20205;-81
2024/02/24 06:07:39;;;;;;;1.23;0.90;;;;;;;-145.69;61.11;52329.53;5111187;28;20196;-81
2024/02/24 06:10:07;;;;;;;0.77;0.77;;;;;;;-145.69;60.84;52341.41;5112216;28;20270;-81
2024/02/24 06:12:34;;;;;;;0.70;0.70;;;;;;;-145.69;61.20;52323.59;5113534;27;20227;-82
2024/02/24 06:15:00;;;;;;;0.80;0.80;;;;;;;-145.69;61.09;52349.31;5112864;27;20243;-81
2024/02/24 06:17:27;;;;;;;0.60;0.60;;;;;;;-145.69;61.96;52333.47;5112645;28;20212;-82
2024/02/24 06:19:53;;;;;;;0.77;0.77;;;;;;;-145.69;61.54;52333.47;5112812;28;20651;-81
2024/02/24 06:22:20;;;;;;;0.80;0.80;;;;;;;-145.69;61.84;52333.47;5112899;28;20556;-81
2024/02/24 06:24:48;;;;;;;0.60;0.60;;;;;;;-145.69;61.90;52321.59;5113927;27;20205;-81
2024/02/24 06:27:14;;;;;;;2.70;0.90;;;;;;;-145.69;60.89;52321.59;5117445;28;20207;-81
2024/02/24 06:29:41;;;;;;;0.70;0.70;;;;;;;-145.69;60.30;52311.69;5117301;27;20205;-82
2024/02/24 06:32:08;;;;;;;0.80;0.80;;;;;;;-145.69;60.26;52341.41;5116667;28;20288;-81
2024/02/24 06:34:34;;;;;;;0.80;0.80;;;;;;;-145.69;60.01;52309.72;5116700;28;20194;-81
2024/02/24 06:37:01;;;;;;;1.30;0.70;;;;;;;-145.69;61.08;52307.75;5115909;28;20439;-80
2024/02/24 06:39:27;;;;;;;0.60;0.60;;;;;;;-145.69;59.89;52297.84;5116275;28;20198;-80
2024/02/24 06:41:58;;;;;;;1.60;0.60;;;;;;;-145.69;59.69;52329.53;5116957;28;20591;-80
2024/02/24 06:44:25;;;;;;;0.77;0.77;;;;;;;-145.69;59.77;52285.97;5116692;28;20205;-81
2024/02/24 06:46:51;;;;;;;2.07;0.73;;;;;;;-145.69;59.25;52317.66;5116501;28;20205;-82
2024/02/24 06:49:18;;;;;;;0.70;0.70;;;;;;;-145.69;58.91;52325.56;5116675;28;20216;-80
2024/02/24 06:51:44;;;;;;;1.17;0.70;;;;;;;-145.69;58.88;52329.53;5116205;28;20232;-81
2024/02/24 06:54:11;;;;;;;3.40;0.80;;;;;;;-145.69;58.88;52285.97;5116317;28;20198;-81
2024/02/24 06:56:37;;;;;;;0.60;0.60;;;;;;;-145.69;58.18;52309.72;5116373;28;20225;-81
2024/02/24 06:59:06;;;;;;;0.97;0.70;;;;;;;-145.69;59.05;52345.38;5116455;28;20193;-81
2024/02/24 07:01:33;;;;;;;1.87;0.80;;;;;;;-145.69;59.21;52321.59;5116486;28;20197;-81
2024/02/24 07:03:59;;;;;;;0.77;0.77;;;;;;;-145.69;58.67;52327.53;5116343;27;20267;-80
2024/02/24 07:06:26;;;;;;;0.80;0.80;;;;;;;-145.69;58.28;52333.47;5116208;28;20212;-80
2024/02/24 07:08:52;;;;;;;0.70;0.70;;;;;;;-145.69;58.80;52329.53;5115553;28;20221;-80
2024/02/24 07:11:19;;;;;;;0.80;0.80;;;;;;;-145.69;58.46;52293.88;5116206;28;20209;-80
2024/02/24 07:13:46;;;;;;;1.10;0.70;;;;;;;-145.69;58.39;52301.81;5115908;28;20201;-80
2024/02/24 07:16:15;;;;;;;2.13;1.53;;;;;;;-145.69;58.12;52329.53;5116117;28;20330;-80
2024/02/24 07:18:42;;;;;;;0.60;0.60;;;;;;;-145.69;58.16;52329.53;5116058;28;20552;-79
2024/02/24 07:21:08;;;;;;;0.60;0.60;;;;;;;-145.69;57.83;52335.47;5115562;28;20205;-80
2024/02/24 07:23:35;;;;;;;1.10;0.80;;;;;;;-145.69;57.83;52335.47;5116153;28;20205;-82
2024/02/24 07:26:02;;;;;;;0.60;0.60;;;;;;;-145.69;57.67;52295.84;5115777;28;20537;-81
2024/02/24 07:28:32;;;;;;;1.67;0.70;;;;;;;-145.69;56.88;52317.66;5115401;28;20200;-80
2024/02/24 07:30:58;;;;;;;0.83;0.77;;;;;;;-145.69;56.90;52309.72;5115024;28;20656;-82
2024/02/24 07:33:26;;;;;;;0.60;0.60;;;;;;;-145.69;56.57;52321.59;5115190;28;20677;-82
2024/02/24 07:35:53;;;;;;;0.83;0.73;;;;;;;-145.69;56.39;52301.81;5114712;28;20225;-82
2024/02/24 07:38:19;;;;;;;2.13;0.87;;;;;;;-145.69;56.31;52329.53;5114725;28;20769;-83
2024/02/24 07:40:46;;;;;;;1.27;0.97;;;;;;;-145.69;55.57;52337.44;5115291;27;20202;-82
2024/02/24 07:43:14;;;;;;;0.87;0.80;;;;;;;-145.69;55.74;52337.44;5115510;28;20392;-81
2024/02/24 07:45:40;;;;;;;1.03;0.90;;;;;;;-145.69;55.08;52341.41;5114886;28;20299;-82
2024/02/24 07:48:07;;;;;;;2.93;0.67;;;;;;;-145.69;55.24;52289.91;5115051;28;20228;-82
2024/02/24 07:50:35;;;;;;;1.83;0.80;;;;;;;-145.69;55.02;52317.66;5114912;28;20232;-82
2024/02/24 07:53:03;;;;;;;0.90;0.90;;;;;;;-145.69;54.06;52321.59;5115545;28;20255;-81
2024/02/24 07:55:30;;;;;;;1.47;0.70;;;;;;;-145.69;53.44;52321.59;5115445;28;20232;-82
2024/02/24 07:57:57;;;;;;;0.73;0.73;;;;;;;-145.69;53.34;52289.91;5115159;28;20285;-82
2024/02/24 08:00:24;;;;;;;0.63;0.63;;;;;;;-145.69;52.97;52260.22;5115351;28;20201;-82
2024/02/24 08:02:50;;;;;;;0.70;0.70;;;;;;;-145.69;52.48;52341.41;5114576;28;20205;-82
2024/02/24 08:05:18;;;;;;;0.93;0.70;;;;;;;-145.69;52.77;52301.81;5115350;28;20193;-82
2024/02/24 08:07:46;;;;;;;0.77;0.70;;;;;;;-145.69;52.82;52297.84;5115381;28;20284;-82
2024/02/24 08:10:12;;;;;;;0.60;0.60;;;;;;;-145.69;52.32;52283.97;5115039;28;20208;-82
2024/02/24 08:12:39;;;;;;;0.50;0.50;;;;;;;-145.69;51.10;52323.59;5115126;28;20224;-83
2024/02/24 08:15:06;;;;;;;0.87;0.70;;;;;;;-145.69;52.32;52305.75;5114704;28;20259;-82
2024/02/24 08:17:33;;;;;;;0.73;0.70;;;;;;;-145.69;51.76;52266.16;5114542;28;20204;-82
2024/02/24 08:20:00;;;;;;;0.53;0.53;;;;;;;-145.69;52.29;52285.97;5114367;28;20208;-82
2024/02/24 08:22:26;;;;;;;5.43;0.73;;;;;;;-145.69;52.92;52313.69;5114645;28;20250;-82
2024/02/24 08:24:54;;;;;;;0.80;0.80;;;;;;;-145.69;52.85;52301.81;5115081;27;20205;-82
2024/02/24 08:27:21;;;;;;;0.77;0.77;;;;;;;-145.69;53.73;52297.84;5114165;27;20189;-82
2024/02/24 08:29:47;;;;;;;1.20;0.77;;;;;;;-145.69;54.18;52301.81;5114743;28;20205;-81
2024/02/24 08:32:14;;;;;;;1.07;0.70;;;;;;;-145.69;53.98;52285.97;5114612;28;20205;-81
2024/02/24 08:34:40;;;;;;;2.73;0.83;;;;;;;-145.69;54.55;52278.03;5114672;28;20288;-81
2024/02/24 08:37:07;;;;;;;1.63;0.70;;;;;;;-145.69;54.89;52295.84;5114070;28;20230;-81
2024/02/24 08:39:33;;;;;;;0.80;0.80;;;;;;;-145.69;54.89;52329.53;5114080;28;20197;-81
2024/02/24 08:42:02;;;;;;;1.13;0.87;;;;;;;-145.69;55.08;52309.72;5114296;28;20202;-81
2024/02/24 08:44:29;;;;;;;1.13;0.90;;;;;;;-145.69;54.31;52289.91;5114185;28;20197;-82
2024/02/24 08:46:55;;;;;;;0.90;0.70;;;;;;;-145.69;52.53;52313.69;5114544;28;20242;-80
2024/02/24 08:49:22;;;;;;;1.73;1.13;;;;;;;-145.69;51.71;52301.81;5113994;28;20679;-81
2024/02/24 08:51:48;;;;;;;1.10;1.00;;;;;;;-145.69;51.42;52317.66;5114005;28;20654;-81
2024/02/24 08:54:20;;;;;;;0.90;0.80;;;;;;;-145.69;50.75;52287.94;5114070;28;20198;-81
2024/02/24 08:56:47;;;;;;;0.70;0.70;;;;;;;-145.69;49.72;52339.44;5113793;28;20290;-81
2024/02/24 08:59:15;;;;;;;3.67;1.30;;;;;;;-145.69;50.32;52301.81;5114022;28;20198;-81
2024/02/24 09:01:41;;;;;;;2.20;0.93;;;;;;;-145.69;50.18;52270.13;5114077;28;20255;-80
2024/02/24 09:04:08;;;;;;;3.03;1.10;;;;;;;-145.69;50.17;52297.84;5114044;28;20201;-81
2024/02/24 09:06:35;;;;;;;1.10;0.70;;;;;;;-145.69;50.11;52305.75;5113958;28;20250;-81
2024/02/24 09:09:04;;;;;;;3.13;0.80;;;;;;;-145.69;50.68;52297.84;5114077;28;20547;-82
2024/02/24 09:11:30;;;;;;;0.87;0.70;;;;;;;-145.69;50.55;52282.00;5113478;28;20212;-82
2024/02/24 09:13:57;;;;;;;2.63;0.80;;;;;;;-145.69;49.88;52317.66;5114133;28;20212;-81
2024/02/24 09:16:25;;;;;;;1.33;0.70;;;;;;;-145.69;48.65;52313.69;5113685;28;20572;-82
2024/02/24 09:18:52;;;;;;;0.70;0.70;;;;;;;-145.69;50.12;52285.97;5113873;28;20205;-81
2024/02/24 09:21:19;;;;;;;0.63;0.60;;;;;;;-145.69;49.50;52278.03;5113407;28;20242;-82
2024/02/24 09:23:45;;;;;;;4.47;1.13;;;;;;;-145.69;49.13;52289.91;5113413;28;20206;-81
2024/02/24 09:26:12;;;;;;;0.63;0.63;;;;;;;-145.69;47.46;52289.91;5113481;28;20202;-81
2024/02/24 09:28:38;;;;;;;0.97;0.87;;;;;;;-145.69;48.24;52262.19;5113536;28;20490;-82
2024/02/24 09:31:05;;;;;;;0.73;0.70;;;;;;;-145.69;47.22;52256.25;5113233;28;20193;-82
2024/02/24 09:33:32;;;;;;;1.03;0.90;;;;;;;-145.69;48.00;52280.00;5113514;28;20201;-82
2024/02/24 09:36:00;;;;;;;1.33;0.77;;;;;;;-145.69;45.26;52282.00;5113145;28;20231;-82
2024/02/24 09:38:26;;;;;;;2.47;0.80;;;;;;;-145.69;45.24;52295.84;5112458;28;20193;-80
2024/02/24 09:40:53;;;;;;;0.80;0.60;;;;;;;-145.69;44.29;52270.13;5112510;28;20590;-81
2024/02/24 09:43:19;;;;;;;0.60;0.60;;;;;;;-145.69;44.40;52266.16;5113312;28;20205;-80
2024/02/24 09:45:47;;;;;;;0.73;0.60;;;;;;;-145.69;44.11;52299.81;5113574;28;20586;-82
2024/02/24 09:48:14;;;;;;;0.87;0.73;;;;;;;-145.69;44.45;52299.81;5112830;28;20194;-82
2024/02/24 09:50:42;;;;;;;0.60;0.60;;;;;;;-145.69;44.77;52274.06;5113134;28;20233;-81
2024/02/24 09:53:09;;;;;;;0.77;0.77;;;;;;;-145.69;44.32;52264.16;5113291;28;20551;-81
2024/02/24 09:55:36;;;;;;;0.63;0.63;;;;;;;-145.69;43.96;52260.22;5112966;28;20193;-82
2024/02/24 09:58:06;;;;;;;0.60;0.60;;;;;;;-145.69;44.87;52262.19;5112788;28;20200;-82
2024/02/24 10:00:33;;;;;;;0.50;0.50;;;;;;;-145.69;44.48;52262.19;5112470;27;20198;-82
2024/02/24 10:02:59;;;;;;;0.80;0.73;;;;;;;-145.69;45.15;52285.97;5113242;28;20205;-82
2024/02/24 10:05:27;;;;;;;1.27;1.00;;;;;;;-145.69;44.78;52268.13;5112854;28;20560;-82
2024/02/24 10:07:54;;;;;;;0.97;0.83;;;;;;;-145.69;43.74;52262.19;5112691;28;20202;-81
2024/02/24 10:10:23;;;;;;;2.27;0.87;;;;;;;-145.69;43.53;52252.28;5113139;28;20201;-81
2024/02/24 10:12:57;;;;;;;0.60;0.60;;;;;;;-145.69;43.32;52244.38;5113262;28;20303;-81
2024/02/24 10:15:24;;;;;;;1.60;0.60;;;;;;;-145.69;42.29;52260.22;5112821;28;20212;-81
2024/02/24 10:17:51;;;;;;;2.10;0.70;;;;;;;-145.69;43.05;52291.91;5112440;28;20236;-82
2024/02/24 10:20:17;;;;;;;1.43;0.70;;;;;;;-145.69;42.00;52258.22;5112725;28;20289;-81
2024/02/24 10:22:43;;;;;;;1.43;0.60;;;;;;;-145.69;41.89;52240.41;5112633;28;20599;-80
2024/02/24 10:25:12;;;;;;;0.47;0.47;;;;;;;-145.69;41.88;52262.19;5112147;28;20541;-81
2024/02/24 10:27:39;;;;;;;1.00;0.53;;;;;;;-145.69;41.57;52226.53;5113247;28;20224;-81
2024/02/24 10:30:07;;;;;;;0.93;0.67;;;;;;;-145.69;41.05;52230.50;5113992;28;20197;-83
2024/02/24 10:32:34;;;;;;;1.70;0.63;;;;;;;-145.69;40.55;52232.50;5116281;28;20201;-82
2024/02/24 10:35:03;;;;;;;1.17;0.53;;;;;;;-145.69;39.87;52234.47;5115228;28;20232;-82
2024/02/24 10:37:31;;;;;;;0.60;0.50;;;;;;;-145.69;40.54;52268.13;5114423;28;20225;-81
2024/02/24 10:40:00;;;;;;;0.70;0.70;;;;;;;-145.69;40.47;52222.59;5113278;28;20202;-81
2024/02/24 10:42:29;;;;;;;1.53;0.60;;;;;;;-145.69;41.08;52224.56;5114882;28;20197;-81
2024/02/24 10:44:56;;;;;;;0.87;0.60;;;;;;;-145.69;39.91;52234.47;5112666;28;20197;-81
2024/02/24 10:47:23;;;;;;;0.50;0.50;;;;;;;-145.69;39.98;52250.31;5112706;28;20644;-81
2024/02/24 10:49:49;;;;;;;1.03;0.97;;;;;;;-145.69;40.31;52220.59;5112834;28;20213;-82
2024/02/24 10:52:18;;;;;;;2.13;0.53;;;;;;;-145.69;41.05;52222.59;5113507;28;20204;-80
2024/02/24 10:54:47;;;;;;;0.47;0.47;;;;;;;-145.69;41.06;52208.72;5110523;28;20204;-82
2024/02/24 10:57:16;;;;;;;1.63;0.90;;;;;;;-145.69;39.93;52248.34;5111667;28;20229;-80
2024/02/24 10:59:44;;;;;;;1.60;0.70;;;;;;;-145.69;38.76;52242.38;5112457;28;20676;-82
2024/02/24 11:02:13;;;;;;;1.13;0.90;;;;;;;-145.69;39.29;52232.50;5112352;28;20197;-81
2024/02/24 11:04:41;;;;;;;0.70;0.53;;;;;;;-145.69;39.10;52238.44;5112408;28;20231;-83
2024/02/24 11:07:08;;;;;;;1.10;0.63;;;;;;;-145.69;38.76;52226.53;5112370;28;20263;-84
2024/02/24 11:09:36;;;;;;;0.70;0.70;;;;;;;-145.69;38.97;52224.56;5112169;28;20205;-83
2024/02/24 11:12:04;;;;;;;0.40;0.40;;;;;;;-145.69;38.32;52200.81;5113675;28;20678;-83
2024/02/24 11:14:31;;;;;;;2.08;0.68;;;;;;;-145.69;38.09;52202.78;5115792;28;20204;-84